sensor_id;sensor_type;location;lat;lon;timestamp;P1;durP1;ratioP1;P2;durP2;ratioP2
43449;SDS011;29041;42.266;23.110;2023-07-13T00:00:43;3.78;;;2.22;;
43449;SDS011;29041;42.266;23.110;2023-07-13T00:03:30;5.78;;;2.65;;
43449;SDS011;29041;42.266;23.110;2023-07-13T00:06:20;4.97;;;2.33;;
43449;SDS011;29041;42.266;23.110;2023-07-13T00:09:07;6.75;;;2.92;;
43449;SDS011;29041;42.266;23.110;2023-07-13T00:11:57;2.42;;;1.98;;
43449;SDS011;29041;42.266;23.110;2023-07-13T00:14:44;4.25;;;2.67;;
43449;SDS011;29041;42.266;23.110;2023-07-13T00:17:31;3.15;;;2.08;;
43449;SDS011;29041;42.266;23.110;2023-07-13T00:20:19;4.88;;;2.72;;
43449;SDS011;29041;42.266;23.110;2023-07-13T00:23:07;5.55;;;2.58;;
43449;SDS011;29041;42.266;23.110;2023-07-13T00:25:54;5.18;;;2.40;;
43449;SDS011;29041;42.266;23.110;2023-07-13T00:28:43;6.82;;;3.50;;
43449;SDS011;29041;42.266;23.110;2023-07-13T00:31:31;8.48;;;3.15;;
43449;SDS011;29041;42.266;23.110;2023-07-13T00:34:18;6.82;;;2.72;;
43449;SDS011;29041;42.266;23.110;2023-07-13T00:37:05;5.45;;;2.42;;
43449;SDS011;29041;42.266;23.110;2023-07-13T00:39:53;5.00;;;2.38;;
43449;SDS011;29041;42.266;23.110;2023-07-13T00:42:40;4.45;;;2.92;;
43449;SDS011;29041;42.266;23.110;2023-07-13T00:49:06;6.82;;;2.78;;
43449;SDS011;29041;42.266;23.110;2023-07-13T00:54:47;4.82;;;2.25;;
43449;SDS011;29041;42.266;23.110;2023-07-13T00:57:34;5.55;;;2.80;;
43449;SDS011;29041;42.266;23.110;2023-07-13T01:00:22;4.65;;;2.97;;
43449;SDS011;29041;42.266;23.110;2023-07-13T01:03:12;4.05;;;2.72;;
43449;SDS011;29041;42.266;23.110;2023-07-13T01:06:00;3.55;;;2.90;;
43449;SDS011;29041;42.266;23.110;2023-07-13T01:08:48;4.72;;;2.42;;
43449;SDS011;29041;42.266;23.110;2023-07-13T01:11:35;3.50;;;2.30;;
43449;SDS011;29041;42.266;23.110;2023-07-13T01:14:22;4.53;;;2.63;;
43449;SDS011;29041;42.266;23.110;2023-07-13T01:17:09;6.97;;;2.92;;
43449;SDS011;29041;42.266;23.110;2023-07-13T01:19:57;7.25;;;2.83;;
43449;SDS011;29041;42.266;23.110;2023-07-13T01:22:46;3.83;;;2.70;;
43449;SDS011;29041;42.266;23.110;2023-07-13T01:25:34;5.97;;;2.80;;
43449;SDS011;29041;42.266;23.110;2023-07-13T01:28:21;7.65;;;3.38;;
43449;SDS011;29041;42.266;23.110;2023-07-13T01:31:12;6.75;;;3.22;;
43449;SDS011;29041;42.266;23.110;2023-07-13T01:33:59;4.22;;;2.83;;
43449;SDS011;29041;42.266;23.110;2023-07-13T01:36:46;5.75;;;2.83;;
43449;SDS011;29041;42.266;23.110;2023-07-13T01:39:35;5.55;;;2.83;;
43449;SDS011;29041;42.266;23.110;2023-07-13T01:42:23;4.28;;;2.97;;
43449;SDS011;29041;42.266;23.110;2023-07-13T01:45:10;3.33;;;2.38;;
43449;SDS011;29041;42.266;23.110;2023-07-13T01:47:58;4.95;;;2.63;;
43449;SDS011;29041;42.266;23.110;2023-07-13T01:50:45;3.65;;;2.67;;
43449;SDS011;29041;42.266;23.110;2023-07-13T01:53:32;4.63;;;3.20;;
43449;SDS011;29041;42.266;23.110;2023-07-13T01:56:20;6.13;;;3.10;;
43449;SDS011;29041;42.266;23.110;2023-07-13T01:59:08;4.88;;;2.80;;
43449;SDS011;29041;42.266;23.110;2023-07-13T02:01:55;6.78;;;2.70;;
43449;SDS011;29041;42.266;23.110;2023-07-13T02:04:42;8.13;;;3.47;;
43449;SDS011;29041;42.266;23.110;2023-07-13T02:07:29;5.38;;;3.55;;
43449;SDS011;29041;42.266;23.110;2023-07-13T02:10:16;4.03;;;3.35;;
43449;SDS011;29041;42.266;23.110;2023-07-13T02:13:05;5.18;;;3.28;;
43449;SDS011;29041;42.266;23.110;2023-07-13T02:15:53;4.75;;;3.00;;
43449;SDS011;29041;42.266;23.110;2023-07-13T02:18:40;7.47;;;2.65;;
43449;SDS011;29041;42.266;23.110;2023-07-13T02:21:27;10.55;;;3.78;;
43449;SDS011;29041;42.266;23.110;2023-07-13T02:24:15;4.95;;;2.90;;
43449;SDS011;29041;42.266;23.110;2023-07-13T02:27:04;6.47;;;2.72;;
43449;SDS011;29041;42.266;23.110;2023-07-13T02:29:54;5.55;;;2.78;;
43449;SDS011;29041;42.266;23.110;2023-07-13T02:32:41;6.97;;;2.95;;
43449;SDS011;29041;42.266;23.110;2023-07-13T02:35:29;6.50;;;3.80;;
43449;SDS011;29041;42.266;23.110;2023-07-13T02:38:16;6.18;;;2.92;;
43449;SDS011;29041;42.266;23.110;2023-07-13T02:41:03;4.55;;;3.38;;
43449;SDS011;29041;42.266;23.110;2023-07-13T02:43:50;8.27;;;3.20;;
43449;SDS011;29041;42.266;23.110;2023-07-13T02:46:39;6.10;;;3.58;;
43449;SDS011;29041;42.266;23.110;2023-07-13T02:49:26;7.35;;;3.92;;
43449;SDS011;29041;42.266;23.110;2023-07-13T02:52:13;5.80;;;3.53;;
43449;SDS011;29041;42.266;23.110;2023-07-13T02:55:01;5.70;;;3.53;;
43449;SDS011;29041;42.266;23.110;2023-07-13T02:57:48;8.07;;;3.75;;
43449;SDS011;29041;42.266;23.110;2023-07-13T03:00:37;6.68;;;3.90;;
43449;SDS011;29041;42.266;23.110;2023-07-13T03:03:27;5.28;;;2.80;;
43449;SDS011;29041;42.266;23.110;2023-07-13T03:06:15;13.30;;;4.30;;
43449;SDS011;29041;42.266;23.110;2023-07-13T03:09:06;7.03;;;3.08;;
43449;SDS011;29041;42.266;23.110;2023-07-13T03:11:59;5.85;;;3.67;;
43449;SDS011;29041;42.266;23.110;2023-07-13T03:17:33;4.63;;;3.35;;
43449;SDS011;29041;42.266;23.110;2023-07-13T03:20:22;5.32;;;3.72;;
43449;SDS011;29041;42.266;23.110;2023-07-13T03:23:09;6.97;;;3.20;;
43449;SDS011;29041;42.266;23.110;2023-07-13T03:26:04;5.70;;;3.53;;
43449;SDS011;29041;42.266;23.110;2023-07-13T03:28:52;5.45;;;3.30;;
43449;SDS011;29041;42.266;23.110;2023-07-13T03:31:39;4.50;;;3.22;;
43449;SDS011;29041;42.266;23.110;2023-07-13T03:34:27;4.43;;;3.17;;
43449;SDS011;29041;42.266;23.110;2023-07-13T03:37:15;6.40;;;3.45;;
43449;SDS011;29041;42.266;23.110;2023-07-13T03:40:03;7.45;;;3.47;;
43449;SDS011;29041;42.266;23.110;2023-07-13T03:42:54;4.82;;;3.25;;
43449;SDS011;29041;42.266;23.110;2023-07-13T03:45:41;4.90;;;3.22;;
43449;SDS011;29041;42.266;23.110;2023-07-13T03:48:29;4.40;;;3.58;;
43449;SDS011;29041;42.266;23.110;2023-07-13T03:51:16;6.70;;;3.65;;
43449;SDS011;29041;42.266;23.110;2023-07-13T03:54:21;6.05;;;3.15;;
43449;SDS011;29041;42.266;23.110;2023-07-13T03:57:08;5.72;;;3.63;;
43449;SDS011;29041;42.266;23.110;2023-07-13T03:59:55;6.13;;;3.90;;
43449;SDS011;29041;42.266;23.110;2023-07-13T04:02:43;6.03;;;4.05;;
43449;SDS011;29041;42.266;23.110;2023-07-13T04:05:32;6.05;;;3.58;;
43449;SDS011;29041;42.266;23.110;2023-07-13T04:08:22;6.07;;;3.83;;
43449;SDS011;29041;42.266;23.110;2023-07-13T04:11:11;10.38;;;3.72;;
43449;SDS011;29041;42.266;23.110;2023-07-13T04:13:58;5.10;;;3.70;;
43449;SDS011;29041;42.266;23.110;2023-07-13T04:16:48;5.47;;;4.07;;
43449;SDS011;29041;42.266;23.110;2023-07-13T04:19:35;7.30;;;3.97;;
43449;SDS011;29041;42.266;23.110;2023-07-13T04:22:22;7.30;;;4.38;;
43449;SDS011;29041;42.266;23.110;2023-07-13T04:25:09;6.97;;;3.55;;
43449;SDS011;29041;42.266;23.110;2023-07-13T04:27:58;8.05;;;3.65;;
43449;SDS011;29041;42.266;23.110;2023-07-13T04:30:45;8.32;;;3.83;;
43449;SDS011;29041;42.266;23.110;2023-07-13T04:33:33;7.95;;;4.47;;
43449;SDS011;29041;42.266;23.110;2023-07-13T04:36:20;5.28;;;4.00;;
43449;SDS011;29041;42.266;23.110;2023-07-13T04:39:07;6.45;;;3.88;;
43449;SDS011;29041;42.266;23.110;2023-07-13T04:41:55;7.97;;;3.40;;
43449;SDS011;29041;42.266;23.110;2023-07-13T04:44:46;5.40;;;3.58;;
43449;SDS011;29041;42.266;23.110;2023-07-13T04:47:34;11.55;;;4.97;;
43449;SDS011;29041;42.266;23.110;2023-07-13T04:50:21;7.63;;;4.15;;
43449;SDS011;29041;42.266;23.110;2023-07-13T04:53:09;5.72;;;3.80;;
43449;SDS011;29041;42.266;23.110;2023-07-13T04:55:56;6.10;;;3.75;;
43449;SDS011;29041;42.266;23.110;2023-07-13T04:58:44;9.82;;;3.40;;
43449;SDS011;29041;42.266;23.110;2023-07-13T05:01:32;6.80;;;3.83;;
43449;SDS011;29041;42.266;23.110;2023-07-13T05:04:19;5.82;;;3.70;;
43449;SDS011;29041;42.266;23.110;2023-07-13T05:07:06;7.82;;;3.90;;
43449;SDS011;29041;42.266;23.110;2023-07-13T05:09:53;9.15;;;3.90;;
43449;SDS011;29041;42.266;23.110;2023-07-13T05:12:41;10.25;;;4.38;;
43449;SDS011;29041;42.266;23.110;2023-07-13T05:15:28;7.53;;;3.88;;
43449;SDS011;29041;42.266;23.110;2023-07-13T05:18:17;6.95;;;4.22;;
43449;SDS011;29041;42.266;23.110;2023-07-13T05:21:04;9.45;;;4.35;;
43449;SDS011;29041;42.266;23.110;2023-07-13T05:23:53;8.65;;;5.88;;
43449;SDS011;29041;42.266;23.110;2023-07-13T05:26:40;11.10;;;4.82;;
43449;SDS011;29041;42.266;23.110;2023-07-13T05:29:27;10.18;;;4.63;;
43449;SDS011;29041;42.266;23.110;2023-07-13T05:32:15;11.50;;;5.15;;
43449;SDS011;29041;42.266;23.110;2023-07-13T05:35:07;11.35;;;5.82;;
43449;SDS011;29041;42.266;23.110;2023-07-13T05:37:54;7.93;;;4.93;;
43449;SDS011;29041;42.266;23.110;2023-07-13T05:40:42;13.02;;;5.70;;
43449;SDS011;29041;42.266;23.110;2023-07-13T05:43:30;13.65;;;5.95;;
43449;SDS011;29041;42.266;23.110;2023-07-13T05:46:17;9.35;;;4.50;;
43449;SDS011;29041;42.266;23.110;2023-07-13T05:49:04;13.02;;;6.40;;
43449;SDS011;29041;42.266;23.110;2023-07-13T05:51:52;12.82;;;5.95;;
43449;SDS011;29041;42.266;23.110;2023-07-13T05:54:39;11.43;;;4.60;;
43449;SDS011;29041;42.266;23.110;2023-07-13T05:57:27;14.60;;;5.88;;
43449;SDS011;29041;42.266;23.110;2023-07-13T06:00:14;12.73;;;4.97;;
43449;SDS011;29041;42.266;23.110;2023-07-13T06:03:02;13.20;;;4.93;;
43449;SDS011;29041;42.266;23.110;2023-07-13T06:05:49;11.65;;;5.10;;
43449;SDS011;29041;42.266;23.110;2023-07-13T06:08:38;8.05;;;4.55;;
43449;SDS011;29041;42.266;23.110;2023-07-13T06:11:26;8.77;;;5.07;;
43449;SDS011;29041;42.266;23.110;2023-07-13T06:14:15;8.45;;;4.47;;
43449;SDS011;29041;42.266;23.110;2023-07-13T06:17:02;10.40;;;6.00;;
43449;SDS011;29041;42.266;23.110;2023-07-13T06:19:50;11.82;;;5.72;;
43449;SDS011;29041;42.266;23.110;2023-07-13T06:22:37;11.13;;;4.90;;
43449;SDS011;29041;42.266;23.110;2023-07-13T06:25:25;18.60;;;5.60;;
43449;SDS011;29041;42.266;23.110;2023-07-13T06:28:13;13.57;;;4.78;;
43449;SDS011;29041;42.266;23.110;2023-07-13T06:31:00;15.93;;;6.03;;
43449;SDS011;29041;42.266;23.110;2023-07-13T06:33:48;9.00;;;4.97;;
43449;SDS011;29041;42.266;23.110;2023-07-13T06:36:35;9.40;;;4.70;;
43449;SDS011;29041;42.266;23.110;2023-07-13T06:39:23;8.75;;;4.65;;
43449;SDS011;29041;42.266;23.110;2023-07-13T06:42:12;23.75;;;6.65;;
43449;SDS011;29041;42.266;23.110;2023-07-13T06:44:59;13.05;;;6.18;;
43449;SDS011;29041;42.266;23.110;2023-07-13T06:47:46;11.65;;;4.85;;
43449;SDS011;29041;42.266;23.110;2023-07-13T06:50:34;12.32;;;5.75;;
43449;SDS011;29041;42.266;23.110;2023-07-13T06:53:21;12.68;;;6.78;;
43449;SDS011;29041;42.266;23.110;2023-07-13T06:56:09;6.45;;;5.22;;
43449;SDS011;29041;42.266;23.110;2023-07-13T06:58:58;10.23;;;5.07;;
43449;SDS011;29041;42.266;23.110;2023-07-13T07:01:45;12.15;;;4.70;;
43449;SDS011;29041;42.266;23.110;2023-07-13T07:04:32;9.05;;;5.95;;
43449;SDS011;29041;42.266;23.110;2023-07-13T07:07:19;16.20;;;6.78;;
43449;SDS011;29041;42.266;23.110;2023-07-13T07:10:07;10.98;;;5.70;;
43449;SDS011;29041;42.266;23.110;2023-07-13T07:12:54;10.35;;;4.97;;
43449;SDS011;29041;42.266;23.110;2023-07-13T07:15:43;6.57;;;5.05;;
43449;SDS011;29041;42.266;23.110;2023-07-13T07:18:30;13.40;;;5.65;;
43449;SDS011;29041;42.266;23.110;2023-07-13T07:21:17;8.88;;;5.47;;
43449;SDS011;29041;42.266;23.110;2023-07-13T07:24:05;12.13;;;5.18;;
43449;SDS011;29041;42.266;23.110;2023-07-13T07:26:53;9.45;;;5.45;;
43449;SDS011;29041;42.266;23.110;2023-07-13T07:29:40;11.20;;;5.05;;
43449;SDS011;29041;42.266;23.110;2023-07-13T07:32:30;11.20;;;5.97;;
43449;SDS011;29041;42.266;23.110;2023-07-13T07:35:18;8.25;;;5.38;;
43449;SDS011;29041;42.266;23.110;2023-07-13T07:38:05;9.88;;;5.45;;
43449;SDS011;29041;42.266;23.110;2023-07-13T07:40:54;7.25;;;4.65;;
43449;SDS011;29041;42.266;23.110;2023-07-13T07:43:41;11.13;;;5.25;;
43449;SDS011;29041;42.266;23.110;2023-07-13T07:46:28;9.73;;;5.60;;
43449;SDS011;29041;42.266;23.110;2023-07-13T07:49:17;8.38;;;4.30;;
43449;SDS011;29041;42.266;23.110;2023-07-13T07:52:05;7.22;;;4.82;;
43449;SDS011;29041;42.266;23.110;2023-07-13T07:54:54;5.22;;;4.53;;
43449;SDS011;29041;42.266;23.110;2023-07-13T07:57:41;8.45;;;4.57;;
43449;SDS011;29041;42.266;23.110;2023-07-13T08:00:28;5.93;;;4.10;;
43449;SDS011;29041;42.266;23.110;2023-07-13T08:03:17;4.47;;;3.95;;
43449;SDS011;29041;42.266;23.110;2023-07-13T08:06:05;6.80;;;3.80;;
43449;SDS011;29041;42.266;23.110;2023-07-13T08:08:52;5.63;;;4.07;;
43449;SDS011;29041;42.266;23.110;2023-07-13T08:11:40;9.18;;;4.18;;
43449;SDS011;29041;42.266;23.110;2023-07-13T08:14:27;14.15;;;4.20;;
43449;SDS011;29041;42.266;23.110;2023-07-13T08:17:14;7.32;;;4.32;;
43449;SDS011;29041;42.266;23.110;2023-07-13T08:20:01;6.25;;;4.35;;
43449;SDS011;29041;42.266;23.110;2023-07-13T08:22:51;5.93;;;4.22;;
43449;SDS011;29041;42.266;23.110;2023-07-13T08:25:38;4.20;;;3.80;;
43449;SDS011;29041;42.266;23.110;2023-07-13T08:28:25;7.45;;;4.00;;
43449;SDS011;29041;42.266;23.110;2023-07-13T08:31:12;9.57;;;5.15;;
43449;SDS011;29041;42.266;23.110;2023-07-13T08:33:59;4.63;;;3.60;;
43449;SDS011;29041;42.266;23.110;2023-07-13T08:36:46;7.05;;;4.97;;
43449;SDS011;29041;42.266;23.110;2023-07-13T08:39:34;4.50;;;4.03;;
43449;SDS011;29041;42.266;23.110;2023-07-13T08:42:31;7.15;;;4.38;;
43449;SDS011;29041;42.266;23.110;2023-07-13T08:45:23;6.05;;;4.80;;
43449;SDS011;29041;42.266;23.110;2023-07-13T08:48:17;8.48;;;5.80;;
43449;SDS011;29041;42.266;23.110;2023-07-13T08:51:13;8.25;;;5.45;;
43449;SDS011;29041;42.266;23.110;2023-07-13T08:54:19;6.05;;;4.30;;
43449;SDS011;29041;42.266;23.110;2023-07-13T08:57:12;5.05;;;3.85;;
43449;SDS011;29041;42.266;23.110;2023-07-13T09:00:00;5.90;;;4.40;;
43449;SDS011;29041;42.266;23.110;2023-07-13T09:02:52;12.10;;;5.30;;
43449;SDS011;29041;42.266;23.110;2023-07-13T09:05:43;7.18;;;4.45;;
43449;SDS011;29041;42.266;23.110;2023-07-13T09:08:38;6.07;;;3.97;;
43449;SDS011;29041;42.266;23.110;2023-07-13T09:11:38;5.50;;;4.63;;
43449;SDS011;29041;42.266;23.110;2023-07-13T09:14:37;8.43;;;4.63;;
43449;SDS011;29041;42.266;23.110;2023-07-13T09:17:30;6.63;;;5.18;;
43449;SDS011;29041;42.266;23.110;2023-07-13T09:20:22;7.25;;;4.88;;
43449;SDS011;29041;42.266;23.110;2023-07-13T09:23:16;6.30;;;4.05;;
43449;SDS011;29041;42.266;23.110;2023-07-13T09:26:06;10.63;;;5.07;;
43449;SDS011;29041;42.266;23.110;2023-07-13T09:29:03;23.55;;;5.18;;
43449;SDS011;29041;42.266;23.110;2023-07-13T09:32:10;4.20;;;3.75;;
43449;SDS011;29041;42.266;23.110;2023-07-13T09:35:01;5.90;;;4.32;;
43449;SDS011;29041;42.266;23.110;2023-07-13T09:37:59;7.20;;;3.95;;
43449;SDS011;29041;42.266;23.110;2023-07-13T09:40:56;12.13;;;9.10;;
43449;SDS011;29041;42.266;23.110;2023-07-13T09:47:15;5.90;;;4.78;;
43449;SDS011;29041;42.266;23.110;2023-07-13T09:50:06;5.05;;;3.72;;
43449;SDS011;29041;42.266;23.110;2023-07-13T09:52:56;5.80;;;3.50;;
43449;SDS011;29041;42.266;23.110;2023-07-13T09:55:45;7.80;;;4.28;;
43449;SDS011;29041;42.266;23.110;2023-07-13T09:58:33;8.88;;;6.07;;
43449;SDS011;29041;42.266;23.110;2023-07-13T10:01:30;9.73;;;7.07;;
43449;SDS011;29041;42.266;23.110;2023-07-13T10:04:26;11.50;;;6.40;;
43449;SDS011;29041;42.266;23.110;2023-07-13T10:07:15;5.13;;;3.30;;
43449;SDS011;29041;42.266;23.110;2023-07-13T10:10:12;3.60;;;2.95;;
43449;SDS011;29041;42.266;23.110;2023-07-13T10:13:01;4.65;;;3.20;;
43449;SDS011;29041;42.266;23.110;2023-07-13T10:15:49;4.57;;;3.05;;
43449;SDS011;29041;42.266;23.110;2023-07-13T10:18:41;4.82;;;4.13;;
43449;SDS011;29041;42.266;23.110;2023-07-13T10:21:35;5.43;;;3.17;;
43449;SDS011;29041;42.266;23.110;2023-07-13T10:24:29;4.57;;;3.63;;
43449;SDS011;29041;42.266;23.110;2023-07-13T10:27:20;8.37;;;3.20;;
43449;SDS011;29041;42.266;23.110;2023-07-13T10:30:15;4.72;;;3.60;;
43449;SDS011;29041;42.266;23.110;2023-07-13T10:33:09;6.28;;;3.58;;
43449;SDS011;29041;42.266;23.110;2023-07-13T10:38:51;4.15;;;2.85;;
43449;SDS011;29041;42.266;23.110;2023-07-13T10:44:31;5.93;;;4.72;;
43449;SDS011;29041;42.266;23.110;2023-07-13T10:47:20;4.65;;;3.45;;
43449;SDS011;29041;42.266;23.110;2023-07-13T10:50:12;6.03;;;3.60;;
43449;SDS011;29041;42.266;23.110;2023-07-13T10:53:17;8.30;;;3.63;;
43449;SDS011;29041;42.266;23.110;2023-07-13T10:56:15;4.50;;;2.17;;
43449;SDS011;29041;42.266;23.110;2023-07-13T10:59:10;7.97;;;3.22;;
43449;SDS011;29041;42.266;23.110;2023-07-13T11:02:08;7.20;;;2.38;;
43449;SDS011;29041;42.266;23.110;2023-07-13T11:04:58;7.38;;;2.70;;
43449;SDS011;29041;42.266;23.110;2023-07-13T11:08:13;3.55;;;2.50;;
43449;SDS011;29041;42.266;23.110;2023-07-13T11:14:31;5.90;;;2.30;;
43449;SDS011;29041;42.266;23.110;2023-07-13T11:23:29;4.60;;;2.05;;
43449;SDS011;29041;42.266;23.110;2023-07-13T11:29:32;3.28;;;2.35;;
43449;SDS011;29041;42.266;23.110;2023-07-13T11:32:25;6.55;;;2.47;;
43449;SDS011;29041;42.266;23.110;2023-07-13T11:35:19;4.10;;;1.90;;
43449;SDS011;29041;42.266;23.110;2023-07-13T11:38:12;4.50;;;2.53;;
43449;SDS011;29041;42.266;23.110;2023-07-13T11:41:03;3.60;;;2.42;;
43449;SDS011;29041;42.266;23.110;2023-07-13T11:43:55;7.35;;;2.47;;
43449;SDS011;29041;42.266;23.110;2023-07-13T11:46:46;9.13;;;2.22;;
43449;SDS011;29041;42.266;23.110;2023-07-13T11:52:33;2.90;;;2.08;;
43449;SDS011;29041;42.266;23.110;2023-07-13T11:55:23;10.13;;;2.45;;
43449;SDS011;29041;42.266;23.110;2023-07-13T11:58:10;3.38;;;1.95;;
43449;SDS011;29041;42.266;23.110;2023-07-13T12:01:15;5.45;;;1.85;;
43449;SDS011;29041;42.266;23.110;2023-07-13T12:04:08;3.88;;;2.45;;
43449;SDS011;29041;42.266;23.110;2023-07-13T12:07:07;3.83;;;2.08;;
43449;SDS011;29041;42.266;23.110;2023-07-13T12:10:02;5.07;;;1.70;;
43449;SDS011;29041;42.266;23.110;2023-07-13T12:12:52;5.40;;;1.90;;
43449;SDS011;29041;42.266;23.110;2023-07-13T12:15:40;2.72;;;1.58;;
43449;SDS011;29041;42.266;23.110;2023-07-13T12:18:31;6.30;;;2.58;;
43449;SDS011;29041;42.266;23.110;2023-07-13T12:21:19;3.10;;;2.22;;
43449;SDS011;29041;42.266;23.110;2023-07-13T12:24:13;4.27;;;1.90;;
43449;SDS011;29041;42.266;23.110;2023-07-13T12:27:02;4.97;;;2.33;;
43449;SDS011;29041;42.266;23.110;2023-07-13T12:29:51;6.95;;;1.85;;
43449;SDS011;29041;42.266;23.110;2023-07-13T12:32:54;4.65;;;1.70;;
43449;SDS011;29041;42.266;23.110;2023-07-13T12:35:45;3.50;;;1.73;;
43449;SDS011;29041;42.266;23.110;2023-07-13T12:38:35;4.05;;;2.08;;
43449;SDS011;29041;42.266;23.110;2023-07-13T12:41:22;5.03;;;2.20;;
43449;SDS011;29041;42.266;23.110;2023-07-13T12:44:10;3.88;;;2.53;;
43449;SDS011;29041;42.266;23.110;2023-07-13T12:47:02;7.10;;;2.50;;
43449;SDS011;29041;42.266;23.110;2023-07-13T12:49:58;4.97;;;2.33;;
43449;SDS011;29041;42.266;23.110;2023-07-13T12:52:51;5.28;;;3.30;;
43449;SDS011;29041;42.266;23.110;2023-07-13T12:55:40;4.05;;;2.08;;
43449;SDS011;29041;42.266;23.110;2023-07-13T12:58:29;6.50;;;2.58;;
43449;SDS011;29041;42.266;23.110;2023-07-13T13:01:22;5.15;;;3.38;;
43449;SDS011;29041;42.266;23.110;2023-07-13T13:04:14;5.68;;;2.67;;
43449;SDS011;29041;42.266;23.110;2023-07-13T13:07:02;5.55;;;2.47;;
43449;SDS011;29041;42.266;23.110;2023-07-13T13:09:51;4.38;;;2.55;;
43449;SDS011;29041;42.266;23.110;2023-07-13T13:12:40;4.60;;;2.67;;
43449;SDS011;29041;42.266;23.110;2023-07-13T13:15:28;5.38;;;3.03;;
43449;SDS011;29041;42.266;23.110;2023-07-13T13:18:16;10.27;;;3.20;;
43449;SDS011;29041;42.266;23.110;2023-07-13T13:21:03;5.95;;;3.42;;
43449;SDS011;29041;42.266;23.110;2023-07-13T13:23:51;4.57;;;3.05;;
43449;SDS011;29041;42.266;23.110;2023-07-13T13:26:40;4.00;;;2.28;;
43449;SDS011;29041;42.266;23.110;2023-07-13T13:29:31;4.72;;;3.00;;
43449;SDS011;29041;42.266;23.110;2023-07-13T13:32:19;5.70;;;3.15;;
43449;SDS011;29041;42.266;23.110;2023-07-13T13:35:08;5.97;;;2.28;;
43449;SDS011;29041;42.266;23.110;2023-07-13T13:37:59;11.48;;;5.18;;
43449;SDS011;29041;42.266;23.110;2023-07-13T13:40:46;3.25;;;2.33;;
43449;SDS011;29041;42.266;23.110;2023-07-13T13:43:35;7.78;;;3.72;;
43449;SDS011;29041;42.266;23.110;2023-07-13T13:46:23;5.13;;;2.55;;
43449;SDS011;29041;42.266;23.110;2023-07-13T13:49:15;6.45;;;2.95;;
43449;SDS011;29041;42.266;23.110;2023-07-13T13:52:05;7.15;;;2.50;;
43449;SDS011;29041;42.266;23.110;2023-07-13T13:54:55;3.25;;;2.15;;
43449;SDS011;29041;42.266;23.110;2023-07-13T13:57:43;4.60;;;3.38;;
43449;SDS011;29041;42.266;23.110;2023-07-13T14:00:31;6.03;;;2.15;;
43449;SDS011;29041;42.266;23.110;2023-07-13T14:03:19;5.82;;;2.97;;
43449;SDS011;29041;42.266;23.110;2023-07-13T14:06:07;3.15;;;1.70;;
43449;SDS011;29041;42.266;23.110;2023-07-13T14:08:58;3.80;;;2.20;;
43449;SDS011;29041;42.266;23.110;2023-07-13T14:11:46;6.78;;;3.25;;
43449;SDS011;29041;42.266;23.110;2023-07-13T14:14:36;8.45;;;2.55;;
43449;SDS011;29041;42.266;23.110;2023-07-13T14:17:26;8.10;;;3.83;;
43449;SDS011;29041;42.266;23.110;2023-07-13T14:20:14;6.55;;;3.40;;
43449;SDS011;29041;42.266;23.110;2023-07-13T14:23:02;7.85;;;3.42;;
43449;SDS011;29041;42.266;23.110;2023-07-13T14:25:49;3.42;;;1.85;;
43449;SDS011;29041;42.266;23.110;2023-07-13T14:28:36;5.53;;;2.28;;
43449;SDS011;29041;42.266;23.110;2023-07-13T14:31:28;5.15;;;1.98;;
43449;SDS011;29041;42.266;23.110;2023-07-13T14:34:16;4.93;;;2.05;;
43449;SDS011;29041;42.266;23.110;2023-07-13T14:37:04;12.18;;;6.00;;
43449;SDS011;29041;42.266;23.110;2023-07-13T14:39:52;5.28;;;3.10;;
43449;SDS011;29041;42.266;23.110;2023-07-13T14:42:39;6.75;;;2.67;;
43449;SDS011;29041;42.266;23.110;2023-07-13T14:45:27;4.13;;;2.13;;
43449;SDS011;29041;42.266;23.110;2023-07-13T14:48:17;7.95;;;3.58;;
43449;SDS011;29041;42.266;23.110;2023-07-13T14:51:08;6.55;;;3.00;;
43449;SDS011;29041;42.266;23.110;2023-07-13T14:53:56;6.82;;;3.25;;
43449;SDS011;29041;42.266;23.110;2023-07-13T14:56:43;2.13;;;1.35;;
43449;SDS011;29041;42.266;23.110;2023-07-13T14:59:30;3.38;;;2.15;;
43449;SDS011;29041;42.266;23.110;2023-07-13T15:02:19;7.03;;;3.20;;
43449;SDS011;29041;42.266;23.110;2023-07-13T15:05:13;6.22;;;2.17;;
43449;SDS011;29041;42.266;23.110;2023-07-13T15:08:03;7.90;;;2.83;;
43449;SDS011;29041;42.266;23.110;2023-07-13T15:10:51;9.35;;;2.42;;
43449;SDS011;29041;42.266;23.110;2023-07-13T15:13:38;7.78;;;3.20;;
43449;SDS011;29041;42.266;23.110;2023-07-13T15:16:26;4.50;;;2.42;;
43449;SDS011;29041;42.266;23.110;2023-07-13T15:19:13;7.53;;;4.40;;
43449;SDS011;29041;42.266;23.110;2023-07-13T15:22:02;8.02;;;5.05;;
43449;SDS011;29041;42.266;23.110;2023-07-13T15:24:52;9.07;;;4.32;;
43449;SDS011;29041;42.266;23.110;2023-07-13T15:27:40;6.55;;;2.47;;
43449;SDS011;29041;42.266;23.110;2023-07-13T15:30:28;2.85;;;2.33;;
43449;SDS011;29041;42.266;23.110;2023-07-13T15:33:19;6.00;;;3.70;;
43449;SDS011;29041;42.266;23.110;2023-07-13T15:36:10;3.17;;;2.17;;
43449;SDS011;29041;42.266;23.110;2023-07-13T15:38:58;6.78;;;2.25;;
43449;SDS011;29041;42.266;23.110;2023-07-13T15:41:47;3.13;;;1.92;;
43449;SDS011;29041;42.266;23.110;2023-07-13T15:44:46;3.75;;;1.85;;
43449;SDS011;29041;42.266;23.110;2023-07-13T15:47:33;5.40;;;3.10;;
43449;SDS011;29041;42.266;23.110;2023-07-13T15:50:22;5.35;;;2.00;;
43449;SDS011;29041;42.266;23.110;2023-07-13T15:53:11;5.13;;;2.87;;
43449;SDS011;29041;42.266;23.110;2023-07-13T15:55:59;4.97;;;1.85;;
43449;SDS011;29041;42.266;23.110;2023-07-13T15:58:49;5.72;;;2.08;;
43449;SDS011;29041;42.266;23.110;2023-07-13T16:01:37;6.15;;;2.00;;
43449;SDS011;29041;42.266;23.110;2023-07-13T16:04:27;9.10;;;3.72;;
43449;SDS011;29041;42.266;23.110;2023-07-13T16:07:15;3.88;;;2.22;;
43449;SDS011;29041;42.266;23.110;2023-07-13T16:10:04;5.25;;;2.30;;
43449;SDS011;29041;42.266;23.110;2023-07-13T16:12:52;3.15;;;2.03;;
43449;SDS011;29041;42.266;23.110;2023-07-13T16:15:43;7.43;;;2.42;;
43449;SDS011;29041;42.266;23.110;2023-07-13T16:18:30;3.95;;;1.83;;
43449;SDS011;29041;42.266;23.110;2023-07-13T16:21:17;4.60;;;2.50;;
43449;SDS011;29041;42.266;23.110;2023-07-13T16:24:05;4.97;;;2.03;;
43449;SDS011;29041;42.266;23.110;2023-07-13T16:27:01;6.93;;;2.10;;
43449;SDS011;29041;42.266;23.110;2023-07-13T16:29:49;3.38;;;2.25;;
43449;SDS011;29041;42.266;23.110;2023-07-13T16:32:38;6.85;;;2.90;;
43449;SDS011;29041;42.266;23.110;2023-07-13T16:35:25;4.32;;;2.15;;
43449;SDS011;29041;42.266;23.110;2023-07-13T16:38:14;5.97;;;2.30;;
43449;SDS011;29041;42.266;23.110;2023-07-13T16:41:03;4.68;;;2.50;;
43449;SDS011;29041;42.266;23.110;2023-07-13T16:43:55;4.72;;;2.42;;
43449;SDS011;29041;42.266;23.110;2023-07-13T16:46:42;11.27;;;2.33;;
43449;SDS011;29041;42.266;23.110;2023-07-13T16:49:33;5.00;;;2.33;;
43449;SDS011;29041;42.266;23.110;2023-07-13T16:55:16;2.80;;;2.13;;
43449;SDS011;29041;42.266;23.110;2023-07-13T16:58:08;3.63;;;2.20;;
43449;SDS011;29041;42.266;23.110;2023-07-13T17:00:57;4.80;;;2.42;;
43449;SDS011;29041;42.266;23.110;2023-07-13T17:03:44;2.38;;;2.15;;
43449;SDS011;29041;42.266;23.110;2023-07-13T17:06:33;4.13;;;2.50;;
43449;SDS011;29041;42.266;23.110;2023-07-13T17:09:21;4.32;;;2.67;;
43449;SDS011;29041;42.266;23.110;2023-07-13T17:12:09;8.05;;;2.80;;
43449;SDS011;29041;42.266;23.110;2023-07-13T17:15:00;5.80;;;2.63;;
43449;SDS011;29041;42.266;23.110;2023-07-13T17:17:48;4.13;;;2.30;;
43449;SDS011;29041;42.266;23.110;2023-07-13T17:20:37;7.60;;;2.53;;